Time,TemperatureF,DewpointF,PressureIn,WindDirection,WindDirectionDegrees,WindSpeedMPH,WindSpeedGustMPH,Humidity,HourlyPrecipIn,Conditions,Clouds,dailyrainin,SoftwareType,DateUTC
2013-01-18 00:00:00,33.7,29.1,30.51,SE,145,3.0,5.0,83,0.00,,---,0.00,VWS V14.01,2013-01-18 06:00:00,
2013-01-18 00:05:00,34.0,29.1,30.51,SSE,165,2.0,3.0,82,0.00,,---,0.00,VWS V14.01,2013-01-18 06:05:00,
2013-01-18 00:10:00,34.2,29.3,30.51,SE,143,2.0,3.0,82,0.00,,---,0.00,VWS V14.01,2013-01-18 06:10:00,
2013-01-18 00:15:00,34.5,29.3,30.51,SSE,152,2.0,3.0,81,0.00,,---,0.00,VWS V14.01,2013-01-18 06:15:00,
2013-01-18 00:20:00,34.7,29.5,30.51,SSE,156,2.0,3.0,81,0.00,,---,0.00,VWS V14.01,2013-01-18 06:20:00,
2013-01-18 00:25:00,34.6,29.4,30.51,SSE,160,3.0,3.0,81,0.00,,---,0.00,VWS V14.01,2013-01-18 06:25:00,
2013-01-18 00:31:00,34.3,29.1,30.51,South,171,3.0,3.0,81,0.00,,---,0.00,VWS V14.01,2013-01-18 06:31:00,
2013-01-18 00:36:00,34.1,28.9,30.51,South,181,2.0,3.0,81,0.00,,---,0.00,VWS V14.01,2013-01-18 06:36:00,
2013-01-18 00:41:00,33.8,28.6,30.51,SSE,163,2.0,4.0,81,0.00,,---,0.00,VWS V14.01,2013-01-18 06:41:00,
2013-01-18 00:46:00,33.6,28.7,30.51,South,174,3.0,4.0,82,0.00,,---,0.00,VWS V14.01,2013-01-18 06:46:00,
2013-01-18 00:51:00,33.4,28.5,30.51,South,188,3.0,4.0,82,0.00,,---,0.00,VWS V14.01,2013-01-18 06:51:00,
2013-01-18 00:57:00,33.3,28.7,30.51,SSE,153,2.0,4.0,83,0.00,,---,0.00,VWS V14.01,2013-01-18 06:57:00,
2013-01-18 01:02:00,33.2,28.6,30.51,SSE,151,2.0,2.0,83,0.00,,---,0.00,VWS V14.01,2013-01-18 07:02:00,
2013-01-18 01:07:00,33.3,28.7,30.51,South,191,1.0,3.0,83,0.00,,---,0.00,VWS V14.01,2013-01-18 07:07:00,
2013-01-18 01:12:00,33.4,28.8,30.51,SSW,199,2.0,3.0,83,0.00,,---,0.00,VWS V14.01,2013-01-18 07:12:00,
2013-01-18 01:17:00,33.3,28.7,30.51,South,191,2.0,3.0,83,0.00,,---,0.00,VWS V14.01,2013-01-18 07:17:00,
2013-01-18 01:22:00,33.1,28.5,30.51,South,173,2.0,3.0,83,0.00,,---,0.00,VWS V14.01,2013-01-18 07:22:00,
2013-01-18 01:28:00,32.9,28.6,30.51,SSE,148,2.0,3.0,84,0.00,,---,0.00,VWS V14.01,2013-01-18 07:28:00,
2013-01-18 01:33:00,32.9,28.6,30.51,SE,141,1.0,2.0,84,0.00,,---,0.00,VWS V14.01,2013-01-18 07:33:00,
2013-01-18 01:38:00,32.9,28.6,30.51,SE,144,1.0,2.0,84,0.00,,---,0.00,VWS V14.01,2013-01-18 07:38:00,
2013-01-18 01:43:00,32.8,28.5,30.51,South,169,1.0,2.0,84,0.00,,---,0.00,VWS V14.01,2013-01-18 07:43:00,
2013-01-18 01:48:00,32.7,28.4,30.51,SSW,204,1.0,2.0,84,0.00,,---,0.00,VWS V14.01,2013-01-18 07:48:00,
2013-01-18 01:53:00,32.6,28.3,30.51,SSE,166,1.0,2.0,84,0.00,,---,0.00,VWS V14.01,2013-01-18 07:53:00,
2013-01-18 01:58:00,32.4,28.1,30.50,SSE,156,2.0,2.0,84,0.00,,---,0.00,VWS V14.01,2013-01-18 07:58:00,
2013-01-18 02:04:00,32.1,27.8,30.50,SSE,156,2.0,2.0,84,0.00,,---,0.00,VWS V14.01,2013-01-18 08:04:00,
2013-01-18 02:09:00,31.8,27.8,30.50,South,184,1.0,2.0,85,0.00,,---,0.00,VWS V14.01,2013-01-18 08:09:00,
2013-01-18 02:14:00,31.7,27.7,30.50,South,181,1.0,2.0,85,0.00,,---,0.00,VWS V14.01,2013-01-18 08:14:00,
2013-01-18 02:19:00,31.5,27.5,30.50,SSW,195,1.0,2.0,85,0.00,,---,0.00,VWS V14.01,2013-01-18 08:19:00,
2013-01-18 02:24:00,31.4,27.4,30.50,SSW,204,0.0,2.0,85,0.00,,---,0.00,VWS V14.01,2013-01-18 08:24:00,
2013-01-18 02:29:00,31.2,27.5,30.50,SSW,204,0.0,2.0,86,0.00,,---,0.00,VWS V14.01,2013-01-18 08:29:00,
2013-01-18 02:34:00,31.1,27.4,30.50,SSE,163,1.0,1.0,86,0.00,,---,0.00,VWS V14.01,2013-01-18 08:34:00,
2013-01-18 02:40:00,31.1,27.4,30.49,SSE,163,0.0,1.0,86,0.00,,---,0.00,VWS V14.01,2013-01-18 08:40:00,
2013-01-18 02:45:00,31.1,27.4,30.49,SSE,163,0.0,1.0,86,0.00,,---,0.00,VWS V14.01,2013-01-18 08:45:00,
2013-01-18 02:50:00,31.2,27.5,30.49,SSE,163,0.0,1.0,86,0.00,,---,0.00,VWS V14.01,2013-01-18 08:50:00,
2013-01-18 02:55:00,31.1,27.4,30.49,SSE,162,0.0,1.0,86,0.00,,---,0.00,VWS V14.01,2013-01-18 08:55:00,
2013-01-18 03:00:00,31.1,27.4,30.49,SSE,163,1.0,1.0,86,0.00,,---,0.00,VWS V14.01,2013-01-18 09:00:00,
2013-01-18 03:05:00,31.0,27.3,30.49,SSE,163,1.0,1.0,86,0.00,,---,0.00,VWS V14.01,2013-01-18 09:05:00,
2013-01-18 03:10:00,30.9,27.2,30.49,South,174,1.0,2.0,86,0.00,,---,0.00,VWS V14.01,2013-01-18 09:10:00,
2013-01-18 03:16:00,30.8,27.1,30.49,South,169,0.0,2.0,86,0.00,,---,0.00,VWS V14.01,2013-01-18 09:16:00,
2013-01-18 03:21:00,30.7,27.0,30.48,South,169,0.0,2.0,86,0.00,,---,0.00,VWS V14.01,2013-01-18 09:21:00,
2013-01-18 03:26:00,30.7,27.3,30.48,South,169,0.0,2.0,87,0.00,,---,0.00,VWS V14.01,2013-01-18 09:26:00,
2013-01-18 03:31:00,30.9,27.5,30.48,South,169,0.0,0.0,87,0.00,,---,0.00,VWS V14.01,2013-01-18 09:31:00,
2013-01-18 03:36:00,31.1,27.7,30.48,South,169,0.0,0.0,87,0.00,,---,0.00,VWS V14.01,2013-01-18 09:36:00,
2013-01-18 03:41:00,31.0,27.3,30.48,SSW,204,0.0,1.0,86,0.00,,---,0.00,VWS V14.01,2013-01-18 09:41:00,
2013-01-18 03:46:00,30.7,27.0,30.48,SW,218,0.0,1.0,86,0.00,,---,0.00,VWS V14.01,2013-01-18 09:46:00,
2013-01-18 03:52:00,30.5,26.8,30.48,SSW,207,1.0,2.0,86,0.00,,---,0.00,VWS V14.01,2013-01-18 09:52:00,
2013-01-18 03:57:00,30.6,27.2,30.48,SSW,207,2.0,2.0,87,0.00,,---,0.00,VWS V14.01,2013-01-18 09:57:00,
2013-01-18 04:02:00,30.7,27.3,30.48,SW,219,2.0,2.0,87,0.00,,---,0.00,VWS V14.01,2013-01-18 10:02:00,
2013-01-18 04:07:00,30.7,27.0,30.48,SW,214,0.0,2.0,86,0.00,,---,0.00,VWS V14.01,2013-01-18 10:07:00,
2013-01-18 04:12:00,30.5,26.8,30.47,SE,146,1.0,2.0,86,0.00,,---,0.00,VWS V14.01,2013-01-18 10:12:00,
2013-01-18 04:17:00,30.4,27.0,30.47,South,188,1.0,2.0,87,0.00,,---,0.00,VWS V14.01,2013-01-18 10:17:00,
2013-01-18 04:22:00,30.4,27.0,30.47,SSW,198,1.0,2.0,87,0.00,,---,0.00,VWS V14.01,2013-01-18 10:22:00,
2013-01-18 04:28:00,30.4,27.0,30.47,SSW,200,1.0,2.0,87,0.00,,---,0.00,VWS V14.01,2013-01-18 10:28:00,
2013-01-18 04:33:00,30.2,26.8,30.47,SSW,203,0.0,1.0,87,0.00,,---,0.00,VWS V14.01,2013-01-18 10:33:00,
2013-01-18 04:38:00,29.9,26.5,30.47,SSE,165,0.0,1.0,87,0.00,,---,0.00,VWS V14.01,2013-01-18 10:38:00,
2013-01-18 04:43:00,29.7,26.3,30.47,SE,142,1.0,2.0,87,0.00,,---,0.00,VWS V14.01,2013-01-18 10:43:00,
2013-01-18 04:48:00,29.5,26.4,30.47,SSE,156,1.0,2.0,88,0.00,,---,0.00,VWS V14.01,2013-01-18 10:48:00,
2013-01-18 04:54:00,29.5,26.4,30.46,SE,146,1.0,2.0,88,0.00,,---,0.00,VWS V14.01,2013-01-18 10:54:00,
2013-01-18 04:59:00,29.7,26.6,30.46,SE,141,1.0,2.0,88,0.00,,---,0.00,VWS V14.01,2013-01-18 10:59:00,
2013-01-18 05:04:00,29.9,26.8,30.46,SE,129,1.0,2.0,88,0.00,,---,0.00,VWS V14.01,2013-01-18 11:04:00,
2013-01-18 05:09:00,30.1,27.0,30.46,SE,139,1.0,2.0,88,0.00,,---,0.00,VWS V14.01,2013-01-18 11:09:00,
2013-01-18 05:14:00,30.1,26.7,30.45,SE,145,1.0,2.0,87,0.00,,---,0.00,VWS V14.01,2013-01-18 11:14:00,
2013-01-18 05:19:00,30.1,26.7,30.45,SSE,153,1.0,3.0,87,0.00,,---,0.00,VWS V14.01,2013-01-18 11:19:00,
2013-01-18 05:24:00,30.0,26.6,30.45,SSE,151,2.0,3.0,87,0.00,,---,0.00,VWS V14.01,2013-01-18 11:24:00,
2013-01-18 05:29:00,30.0,26.6,30.45,SSE,165,1.0,3.0,87,0.00,,---,0.00,VWS V14.01,2013-01-18 11:29:00,
2013-01-18 05:35:00,29.8,26.4,30.45,South,190,2.0,3.0,87,0.00,,---,0.00,VWS V14.01,2013-01-18 11:35:00,
2013-01-18 05:40:00,29.8,26.7,30.44,South,191,2.0,4.0,88,0.00,,---,0.00,VWS V14.01,2013-01-18 11:40:00,
2013-01-18 05:45:00,29.8,26.7,30.44,SSW,195,3.0,4.0,88,0.00,,---,0.00,VWS V14.01,2013-01-18 11:45:00,
2013-01-18 05:50:00,29.7,26.6,30.44,South,187,2.0,4.0,88,0.00,,---,0.00,VWS V14.01,2013-01-18 11:50:00,
2013-01-18 05:55:00,29.7,26.6,30.44,SSW,194,2.0,4.0,88,0.00,,---,0.00,VWS V14.01,2013-01-18 11:55:00,
2013-01-18 06:00:00,30.0,26.9,30.44,SSW,201,2.0,4.0,88,0.00,,---,0.00,VWS V14.01,2013-01-18 12:00:00,
2013-01-18 06:05:00,30.2,27.1,30.44,SSW,194,1.0,1.0,88,0.00,,---,0.00,VWS V14.01,2013-01-18 12:05:00,
2013-01-18 06:10:00,30.2,27.1,30.44,SW,235,2.0,2.0,88,0.00,,---,0.00,VWS V14.01,2013-01-18 12:10:00,
2013-01-18 06:16:00,30.5,27.1,30.44,WSW,241,2.0,2.0,87,0.00,,---,0.00,VWS V14.01,2013-01-18 12:16:00,
2013-01-18 06:21:00,30.5,27.1,30.44,SW,231,1.0,2.0,87,0.00,,---,0.00,VWS V14.01,2013-01-18 12:21:00,
2013-01-18 06:26:00,30.7,27.6,30.44,SSW,197,1.0,2.0,88,0.00,,---,0.00,VWS V14.01,2013-01-18 12:26:00,
2013-01-18 06:31:00,30.8,27.4,30.43,South,191,1.0,1.0,87,0.00,,---,0.00,VWS V14.01,2013-01-18 12:31:00,
2013-01-18 06:36:00,30.7,27.3,30.43,SSE,153,0.0,1.0,87,0.00,,---,0.00,VWS V14.01,2013-01-18 12:36:00,
2013-01-18 06:41:00,30.8,27.7,30.44,SSE,162,1.0,2.0,88,0.00,,---,0.00,VWS V14.01,2013-01-18 12:41:00,
2013-01-18 06:46:00,31.1,27.7,30.44,SSW,207,1.0,2.0,87,0.00,,---,0.00,VWS V14.01,2013-01-18 12:46:00,
2013-01-18 06:52:00,31.3,27.9,30.44,SSW,194,1.0,2.0,87,0.00,,---,0.00,VWS V14.01,2013-01-18 12:52:00,
2013-01-18 06:57:00,31.4,28.0,30.44,South,191,1.0,2.0,87,0.00,,---,0.00,VWS V14.01,2013-01-18 12:57:00,
2013-01-18 07:02:00,31.5,28.1,30.44,SSE,149,3.0,3.0,87,0.00,,---,0.00,VWS V14.01,2013-01-18 13:02:00,
2013-01-18 07:07:00,32.0,28.6,30.44,SE,146,3.0,4.0,87,0.00,,---,0.00,VWS V14.01,2013-01-18 13:07:00,
2013-01-18 07:12:00,32.4,28.7,30.44,SSE,156,3.0,4.0,86,0.00,,---,0.00,VWS V14.01,2013-01-18 13:12:00,
2013-01-18 07:17:00,32.7,28.7,30.44,SE,142,2.0,4.0,85,0.00,,---,0.00,VWS V14.01,2013-01-18 13:17:00,
2013-01-18 07:22:00,32.8,28.8,30.44,SSE,158,3.0,4.0,85,0.00,,---,0.00,VWS V14.01,2013-01-18 13:22:00,
2013-01-18 07:27:00,32.8,28.5,30.44,South,170,1.0,4.0,84,0.00,,---,0.00,VWS V14.01,2013-01-18 13:27:00,
2013-01-18 07:33:00,32.4,28.4,30.44,SSE,152,2.0,3.0,85,0.00,,---,0.00,VWS V14.01,2013-01-18 13:33:00,
2013-01-18 07:38:00,32.4,28.4,30.44,SSE,153,2.0,3.0,85,0.00,,---,0.00,VWS V14.01,2013-01-18 13:38:00,
2013-01-18 07:43:00,32.7,28.7,30.44,SSE,152,4.0,4.0,85,0.00,,---,0.00,VWS V14.01,2013-01-18 13:43:00,
2013-01-18 07:48:00,32.9,28.6,30.44,SSE,152,3.0,4.0,84,0.00,,---,0.00,VWS V14.01,2013-01-18 13:48:00,
2013-01-18 07:53:00,33.0,28.7,30.44,SE,146,3.0,5.0,84,0.00,,---,0.00,VWS V14.01,2013-01-18 13:53:00,
2013-01-18 07:58:00,33.4,29.1,30.44,SE,146,2.0,5.0,84,0.00,,---,0.00,VWS V14.01,2013-01-18 13:58:00,
2013-01-18 08:04:00,33.7,29.1,30.44,SSE,157,1.0,2.0,83,0.00,,---,0.00,VWS V14.01,2013-01-18 14:04:00,
2013-01-18 08:09:00,33.7,28.8,30.44,SE,134,1.0,2.0,82,0.00,,---,0.00,VWS V14.01,2013-01-18 14:09:00,
2013-01-18 08:14:00,33.8,28.9,30.44,SE,141,2.0,3.0,82,0.00,,---,0.00,VWS V14.01,2013-01-18 14:14:00,
2013-01-18 08:19:00,34.3,29.4,30.44,SE,143,3.0,3.0,82,0.00,,---,0.00,VWS V14.01,2013-01-18 14:19:00,
2013-01-18 08:24:00,34.9,30.0,30.44,SE,136,1.0,3.0,82,0.00,,---,0.00,VWS V14.01,2013-01-18 14:24:00,
2013-01-18 08:29:00,35.4,30.2,30.44,SSE,150,1.0,3.0,81,0.00,,---,0.00,VWS V14.01,2013-01-18 14:29:00,
2013-01-18 08:35:00,36.0,30.4,30.44,SSE,151,1.0,2.0,80,0.00,,---,0.00,VWS V14.01,2013-01-18 14:35:00,
2013-01-18 08:40:00,36.7,30.8,30.44,SSW,204,0.0,2.0,79,0.00,,---,0.00,VWS V14.01,2013-01-18 14:40:00,
2013-01-18 08:45:00,36.4,30.8,30.44,SW,232,1.0,3.0,80,0.00,,---,0.00,VWS V14.01,2013-01-18 14:45:00,
2013-01-18 08:50:00,36.3,31.3,30.44,SSW,204,3.0,4.0,82,0.00,,---,0.00,VWS V14.01,2013-01-18 14:50:00,
2013-01-18 08:55:00,36.3,31.6,30.44,SSW,193,2.0,5.0,83,0.00,,---,0.00,VWS V14.01,2013-01-18 14:55:00,
2013-01-18 09:00:00,36.6,31.3,30.45,SSE,159,4.0,7.0,81,0.00,,---,0.00,VWS V14.01,2013-01-18 15:00:00,
2013-01-18 09:05:00,37.1,31.8,30.45,SSW,197,4.0,5.0,81,0.00,,---,0.00,VWS V14.01,2013-01-18 15:05:00,
2013-01-18 09:11:00,37.6,32.3,30.45,SSW,208,4.0,6.0,81,0.00,,---,0.00,VWS V14.01,2013-01-18 15:11:00,
2013-01-18 09:16:00,38.2,32.9,30.45,SSW,205,3.0,7.0,81,0.00,,---,0.00,VWS V14.01,2013-01-18 15:16:00,
2013-01-18 09:21:00,38.8,33.2,30.45,SW,225,2.0,7.0,80,0.00,,---,0.00,VWS V14.01,2013-01-18 15:21:00,
2013-01-18 09:26:00,39.6,34.0,30.45,South,175,3.0,7.0,80,0.00,,---,0.00,VWS V14.01,2013-01-18 15:26:00,
2013-01-18 09:31:00,40.8,34.8,30.46,South,181,4.0,10.0,79,0.00,,---,0.00,VWS V14.01,2013-01-18 15:31:00,
2013-01-18 09:36:00,42.0,34.3,30.46,SSW,204,8.0,11.0,74,0.00,,---,0.00,VWS V14.01,2013-01-18 15:36:00,
2013-01-18 09:42:00,42.8,34.1,30.46,SSW,195,8.0,13.0,71,0.00,,---,0.00,VWS V14.01,2013-01-18 15:42:00,
2013-01-18 09:47:00,43.4,34.3,30.46,SW,225,8.0,14.0,70,0.00,,---,0.00,VWS V14.01,2013-01-18 15:47:00,
2013-01-18 09:52:00,44.0,34.1,30.46,SSW,212,5.0,14.0,68,0.00,,---,0.00,VWS V14.01,2013-01-18 15:52:00,
2013-01-18 09:57:00,44.5,34.2,30.46,SSW,197,10.0,17.0,67,0.00,,---,0.00,VWS V14.01,2013-01-18 15:57:00,
2013-01-18 10:02:00,45.0,34.0,30.46,SSW,201,4.0,11.0,65,0.00,,---,0.00,VWS V14.01,2013-01-18 16:02:00,
2013-01-18 10:07:00,45.5,34.0,30.46,South,179,5.0,13.0,64,0.00,,---,0.00,VWS V14.01,2013-01-18 16:07:00,
2013-01-18 10:13:00,46.1,34.2,30.46,SSE,150,9.0,13.0,63,0.00,,---,0.00,VWS V14.01,2013-01-18 16:13:00,
2013-01-18 10:18:00,46.7,33.6,30.46,South,186,12.0,21.0,60,0.00,,---,0.00,VWS V14.01,2013-01-18 16:18:00,
2013-01-18 10:23:00,47.3,33.7,30.45,SE,143,9.0,21.0,59,0.00,,---,0.00,VWS V14.01,2013-01-18 16:23:00,
2013-01-18 10:28:00,48.1,33.6,30.45,SSW,198,8.0,21.0,57,0.00,,---,0.00,VWS V14.01,2013-01-18 16:28:00,
2013-01-18 10:33:00,48.6,33.6,30.45,SE,135,11.0,17.0,56,0.00,,---,0.00,VWS V14.01,2013-01-18 16:33:00,
2013-01-18 10:38:00,49.1,34.1,30.44,SSE,148,9.0,17.0,56,0.00,,---,0.00,VWS V14.01,2013-01-18 16:38:00,
2013-01-18 10:44:00,50.1,34.6,30.44,SW,226,8.0,17.0,55,0.00,,---,0.00,VWS V14.01,2013-01-18 16:44:00,
2013-01-18 10:49:00,50.3,33.8,30.44,SSE,148,17.0,21.0,53,0.00,,---,0.00,VWS V14.01,2013-01-18 16:49:00,
2013-01-18 10:54:00,50.4,33.9,30.44,South,170,12.0,21.0,53,0.00,,---,0.00,VWS V14.01,2013-01-18 16:54:00,
2013-01-18 10:59:00,50.8,33.8,30.44,SSE,162,12.0,21.0,52,0.00,,---,0.00,VWS V14.01,2013-01-18 16:59:00,
2013-01-18 11:04:00,51.1,33.6,30.44,SSW,210,14.0,17.0,51,0.00,,---,0.00,VWS V14.01,2013-01-18 17:04:00,
2013-01-18 11:09:00,51.5,34.0,30.43,South,183,10.0,18.0,51,0.00,,---,0.00,VWS V14.01,2013-01-18 17:09:00,
2013-01-18 11:15:00,52.1,34.0,30.43,SE,143,15.0,19.0,50,0.00,,---,0.00,VWS V14.01,2013-01-18 17:15:00,
2013-01-18 11:20:00,52.1,34.0,30.43,South,191,15.0,19.0,50,0.00,,---,0.00,VWS V14.01,2013-01-18 17:20:00,
2013-01-18 11:25:00,52.3,33.7,30.42,South,172,11.0,19.0,49,0.00,,---,0.00,VWS V14.01,2013-01-18 17:25:00,
2013-01-18 11:30:00,52.8,34.2,30.42,South,169,11.0,19.0,49,0.00,,---,0.00,VWS V14.01,2013-01-18 17:30:00,
2013-01-18 11:35:00,53.3,34.1,30.42,SSE,167,9.0,18.0,48,0.00,,---,0.00,VWS V14.01,2013-01-18 17:35:00,
2013-01-18 11:40:00,53.7,34.0,30.41,South,179,13.0,18.0,47,0.00,,---,0.00,VWS V14.01,2013-01-18 17:40:00,
2013-01-18 11:46:00,53.9,33.6,30.41,South,187,11.0,19.0,46,0.00,,---,0.00,VWS V14.01,2013-01-18 17:46:00,
2013-01-18 11:51:00,54.3,33.4,30.41,SSE,148,11.0,19.0,45,0.00,,---,0.00,VWS V14.01,2013-01-18 17:51:00,
2013-01-18 11:56:00,54.7,33.8,30.40,SSE,165,11.0,19.0,45,0.00,,---,0.00,VWS V14.01,2013-01-18 17:56:00,
2013-01-18 12:01:00,55.1,33.6,30.40,SSW,197,11.0,16.0,44,0.00,,---,0.00,VWS V14.01,2013-01-18 18:01:00,
2013-01-18 12:06:00,55.3,33.8,30.39,SSE,167,12.0,19.0,44,0.00,,---,0.00,VWS V14.01,2013-01-18 18:06:00,
2013-01-18 12:11:00,55.5,33.4,30.39,SSE,165,12.0,19.0,43,0.00,,---,0.00,VWS V14.01,2013-01-18 18:11:00,
2013-01-18 12:16:00,55.8,33.7,30.38,SSW,204,15.0,19.0,43,0.00,,---,0.00,VWS V14.01,2013-01-18 18:16:00,
2013-01-18 12:22:00,56.1,33.9,30.38,South,173,14.0,19.0,43,0.00,,---,0.00,VWS V14.01,2013-01-18 18:22:00,
2013-01-18 12:27:00,56.2,33.4,30.37,SSW,193,10.0,19.0,42,0.00,,---,0.00,VWS V14.01,2013-01-18 18:27:00,
2013-01-18 12:32:00,56.6,33.8,30.36,SSE,156,14.0,16.0,42,0.00,,---,0.00,VWS V14.01,2013-01-18 18:32:00,
2013-01-18 12:37:00,56.8,34.0,30.36,SSE,152,13.0,20.0,42,0.00,,---,0.00,VWS V14.01,2013-01-18 18:37:00,
2013-01-18 12:42:00,57.1,34.2,30.35,SSE,167,12.0,20.0,42,0.00,,---,0.00,VWS V14.01,2013-01-18 18:42:00,
2013-01-18 12:47:00,57.8,34.3,30.35,SSW,201,11.0,20.0,41,0.00,,---,0.00,VWS V14.01,2013-01-18 18:47:00,
2013-01-18 12:52:00,58.0,33.8,30.34,SSE,158,14.0,20.0,40,0.00,,---,0.00,VWS V14.01,2013-01-18 18:52:00,
2013-01-18 12:57:00,58.0,33.2,30.34,SSE,152,10.0,20.0,39,0.00,,---,0.00,VWS V14.01,2013-01-18 18:57:00,
2013-01-18 13:02:00,58.2,33.4,30.33,South,174,10.0,17.0,39,0.00,,---,0.00,VWS V14.01,2013-01-18 19:02:00,
2013-01-18 13:08:00,58.4,32.9,30.33,SW,226,10.0,18.0,38,0.00,,---,0.00,VWS V14.01,2013-01-18 19:08:00,
2013-01-18 13:13:00,58.7,33.8,30.33,SSW,203,12.0,19.0,39,0.00,,---,0.00,VWS V14.01,2013-01-18 19:13:00,
2013-01-18 13:18:00,58.9,33.4,30.33,SSE,148,10.0,19.0,38,0.00,,---,0.00,VWS V14.01,2013-01-18 19:18:00,
2013-01-18 13:23:00,59.0,33.5,30.32,WSW,238,15.0,19.0,38,0.00,,---,0.00,VWS V14.01,2013-01-18 19:23:00,
2013-01-18 13:28:00,59.1,33.5,30.32,SSW,197,14.0,19.0,38,0.00,,---,0.00,VWS V14.01,2013-01-18 19:28:00,
2013-01-18 13:33:00,59.2,33.6,30.32,SSW,208,11.0,15.0,38,0.00,,---,0.00,VWS V14.01,2013-01-18 19:33:00,
2013-01-18 13:38:00,59.7,34.1,30.31,SE,145,8.0,18.0,38,0.00,,---,0.00,VWS V14.01,2013-01-18 19:38:00,
2013-01-18 13:43:00,59.7,33.4,30.31,SSE,157,12.0,18.0,37,0.00,,---,0.00,VWS V14.01,2013-01-18 19:43:00,
2013-01-18 13:49:00,59.7,33.4,30.30,SSE,159,13.0,18.0,37,0.00,,---,0.00,VWS V14.01,2013-01-18 19:49:00,
2013-01-18 13:54:00,60.0,33.7,30.30,SSW,193,14.0,23.0,37,0.00,,---,0.00,VWS V14.01,2013-01-18 19:54:00,
2013-01-18 13:59:00,60.3,33.9,30.30,SSE,163,8.0,23.0,37,0.00,,---,0.00,VWS V14.01,2013-01-18 19:59:00,
2013-01-18 14:04:00,60.5,34.1,30.29,South,181,7.0,15.0,37,0.00,,---,0.00,VWS V14.01,2013-01-18 20:04:00,
2013-01-18 14:09:00,60.7,34.3,30.29,South,184,10.0,15.0,37,0.00,,---,0.00,VWS V14.01,2013-01-18 20:09:00,
2013-01-18 14:14:00,60.8,33.7,30.29,South,179,10.0,18.0,36,0.00,,---,0.00,VWS V14.01,2013-01-18 20:14:00,
2013-01-18 14:20:00,60.8,33.7,30.28,SSE,159,12.0,21.0,36,0.00,,---,0.00,VWS V14.01,2013-01-18 20:20:00,
2013-01-18 14:25:00,61.1,34.7,30.28,SSE,156,11.0,21.0,37,0.00,,---,0.00,VWS V14.01,2013-01-18 20:25:00,
2013-01-18 14:30:00,61.0,33.9,30.28,South,172,14.0,21.0,36,0.00,,---,0.00,VWS V14.01,2013-01-18 20:30:00,
2013-01-18 14:35:00,60.9,33.8,30.28,SSE,157,8.0,17.0,36,0.00,,---,0.00,VWS V14.01,2013-01-18 20:35:00,
2013-01-18 14:40:00,61.1,34.7,30.27,SSE,154,16.0,17.0,37,0.00,,---,0.00,VWS V14.01,2013-01-18 20:40:00,
2013-01-18 14:45:00,60.9,33.8,30.27,SE,127,6.0,18.0,36,0.00,,---,0.00,VWS V14.01,2013-01-18 20:45:00,
2013-01-18 14:50:00,61.1,34.0,30.27,SSW,195,11.0,18.0,36,0.00,,---,0.00,VWS V14.01,2013-01-18 20:50:00,
2013-01-18 14:56:00,61.3,34.1,30.27,SE,129,9.0,18.0,36,0.00,,---,0.00,VWS V14.01,2013-01-18 20:56:00,
2013-01-18 15:01:00,61.3,34.1,30.26,SSW,208,6.0,18.0,36,0.00,,---,0.00,VWS V14.01,2013-01-18 21:01:00,
2013-01-18 15:06:00,61.3,34.1,30.26,SE,145,9.0,19.0,36,0.00,,---,0.00,VWS V14.01,2013-01-18 21:06:00,
2013-01-18 15:11:00,61.3,34.1,30.26,SSE,158,8.0,19.0,36,0.00,,---,0.00,VWS V14.01,2013-01-18 21:11:00,
2013-01-18 15:16:00,61.5,34.3,30.25,South,176,10.0,19.0,36,0.00,,---,0.00,VWS V14.01,2013-01-18 21:16:00,
2013-01-18 15:21:00,61.6,34.4,30.25,SSE,155,13.0,19.0,36,0.00,,---,0.00,VWS V14.01,2013-01-18 21:21:00,
2013-01-18 15:26:00,61.7,34.5,30.25,South,174,9.0,19.0,36,0.00,,---,0.00,VWS V14.01,2013-01-18 21:26:00,
2013-01-18 15:32:00,61.6,33.7,30.25,SSE,153,12.0,17.0,35,0.00,,---,0.00,VWS V14.01,2013-01-18 21:32:00,
2013-01-18 15:37:00,61.5,34.3,30.25,South,184,9.0,17.0,36,0.00,,---,0.00,VWS V14.01,2013-01-18 21:37:00,
2013-01-18 15:42:00,61.7,34.5,30.24,SSW,194,14.0,17.0,36,0.00,,---,0.00,VWS V14.01,2013-01-18 21:42:00,
2013-01-18 15:47:00,61.7,34.5,30.24,South,186,11.0,17.0,36,0.00,,---,0.00,VWS V14.01,2013-01-18 21:47:00,
2013-01-18 15:52:00,61.8,34.6,30.24,SSW,195,9.0,17.0,36,0.00,,---,0.00,VWS V14.01,2013-01-18 21:52:00,
2013-01-18 15:57:00,61.9,34.7,30.24,SSW,195,12.0,17.0,36,0.00,,---,0.00,VWS V14.01,2013-01-18 21:57:00,
2013-01-18 16:03:00,62.0,34.8,30.24,SE,136,15.0,20.0,36,0.00,,---,0.00,VWS V14.01,2013-01-18 22:03:00,
2013-01-18 16:08:00,62.0,34.8,30.24,South,191,9.0,20.0,36,0.00,,---,0.00,VWS V14.01,2013-01-18 22:08:00,
2013-01-18 16:13:00,62.1,34.8,30.23,South,172,8.0,20.0,36,0.00,,---,0.00,VWS V14.01,2013-01-18 22:13:00,
2013-01-18 16:18:00,62.1,34.8,30.23,SSE,165,10.0,20.0,36,0.00,,---,0.00,VWS V14.01,2013-01-18 22:18:00,
2013-01-18 16:23:00,62.0,34.1,30.23,South,177,14.0,20.0,35,0.00,,---,0.00,VWS V14.01,2013-01-18 22:23:00,
2013-01-18 16:28:00,62.1,34.2,30.23,South,186,10.0,20.0,35,0.00,,---,0.00,VWS V14.01,2013-01-18 22:28:00,
2013-01-18 16:33:00,62.0,34.8,30.23,South,179,10.0,16.0,36,0.00,,---,0.00,VWS V14.01,2013-01-18 22:33:00,
2013-01-18 16:38:00,61.9,34.0,30.23,SSE,153,15.0,16.0,35,0.00,,---,0.00,VWS V14.01,2013-01-18 22:38:00,
2013-01-18 16:44:00,61.8,33.9,30.23,SSW,204,9.0,20.0,35,0.00,,---,0.00,VWS V14.01,2013-01-18 22:44:00,
2013-01-18 16:49:00,61.7,34.5,30.22,SE,146,11.0,20.0,36,0.00,,---,0.00,VWS V14.01,2013-01-18 22:49:00,
2013-01-18 16:54:00,61.6,34.4,30.22,SSE,163,13.0,20.0,36,0.00,,---,0.00,VWS V14.01,2013-01-18 22:54:00,
2013-01-18 16:59:00,61.6,34.4,30.22,SSE,153,9.0,20.0,36,0.00,,---,0.00,VWS V14.01,2013-01-18 22:59:00,
2013-01-18 17:04:00,61.3,34.8,30.21,South,176,7.0,13.0,37,0.00,,---,0.00,VWS V14.01,2013-01-18 23:04:00,
2013-01-18 17:09:00,61.1,34.7,30.21,SE,129,10.0,14.0,37,0.00,,---,0.00,VWS V14.01,2013-01-18 23:09:00,
2013-01-18 17:14:00,60.8,35.1,30.21,South,169,8.0,14.0,38,0.00,,---,0.00,VWS V14.01,2013-01-18 23:14:00,
2013-01-18 17:20:00,60.6,34.9,30.21,SE,146,6.0,14.0,38,0.00,,---,0.00,VWS V14.01,2013-01-18 23:20:00,
2013-01-18 17:25:00,60.2,35.2,30.21,SSE,148,6.0,14.0,39,0.00,,---,0.00,VWS V14.01,2013-01-18 23:25:00,
2013-01-18 17:30:00,60.0,35.0,30.21,SE,124,9.0,14.0,39,0.00,,---,0.00,VWS V14.01,2013-01-18 23:30:00,
2013-01-18 17:35:00,59.8,34.8,30.21,SSE,158,7.0,11.0,39,0.00,,---,0.00,VWS V14.01,2013-01-18 23:35:00,
2013-01-18 17:40:00,59.4,34.5,30.21,ESE,117,7.0,11.0,39,0.00,,---,0.00,VWS V14.01,2013-01-18 23:40:00,
2013-01-18 17:45:00,58.6,34.4,30.21,SE,131,6.0,11.0,40,0.00,,---,0.00,VWS V14.01,2013-01-18 23:45:00,
2013-01-18 17:51:00,57.9,34.4,30.21,ESE,113,6.0,11.0,41,0.00,,---,0.00,VWS V14.01,2013-01-18 23:51:00,
2013-01-18 17:56:00,57.2,34.3,30.21,SE,134,5.0,11.0,42,0.00,,---,0.00,VWS V14.01,2013-01-18 23:56:00,
2013-01-18 18:01:00,56.5,34.3,30.21,SE,143,6.0,6.0,43,0.00,,---,0.00,VWS V14.01,2013-01-19 00:01:00,
2013-01-18 18:06:00,56.1,34.5,30.21,SE,127,6.0,9.0,44,0.00,,---,0.00,VWS V14.01,2013-01-19 00:06:00,
2013-01-18 18:11:00,55.9,34.3,30.21,SSE,153,7.0,9.0,44,0.00,,---,0.00,VWS V14.01,2013-01-19 00:11:00,
2013-01-18 18:16:00,55.6,34.6,30.21,SSE,149,9.0,10.0,45,0.00,,---,0.00,VWS V14.01,2013-01-19 00:16:00,
2013-01-18 18:30:00,54.5,34.7,30.21,SSE,148,5.0,10.0,47,0.00,,---,0.00,VWS V14.01,2013-01-19 00:30:00,
2013-01-18 18:36:00,54.3,34.5,30.21,ESE,123,6.0,11.0,47,0.00,,---,0.00,VWS V14.01,2013-01-19 00:36:00,
2013-01-18 18:41:00,54.3,34.5,30.21,SE,131,6.0,11.0,47,0.00,,---,0.00,VWS V14.01,2013-01-19 00:41:00,
2013-01-18 18:46:00,54.2,34.4,30.21,SE,124,12.0,12.0,47,0.00,,---,0.00,VWS V14.01,2013-01-19 00:46:00,
2013-01-18 18:51:00,54.2,34.4,30.21,SE,127,10.0,12.0,47,0.00,,---,0.00,VWS V14.01,2013-01-19 00:51:00,
2013-01-18 18:56:00,53.9,34.2,30.22,ESE,120,7.0,12.0,47,0.00,,---,0.00,VWS V14.01,2013-01-19 00:56:00,
2013-01-18 19:01:00,53.6,34.4,30.22,SE,129,7.0,10.0,48,0.00,,---,0.00,VWS V14.01,2013-01-19 01:01:00,
2013-01-18 19:06:00,53.2,34.0,30.21,SE,131,8.0,11.0,48,0.00,,---,0.00,VWS V14.01,2013-01-19 01:06:00,
2013-01-18 19:11:00,52.8,34.2,30.21,SE,142,9.0,12.0,49,0.00,,---,0.00,VWS V14.01,2013-01-19 01:11:00,
2013-01-18 19:16:00,52.6,34.0,30.21,SE,129,6.0,12.0,49,0.00,,---,0.00,VWS V14.01,2013-01-19 01:16:00,
2013-01-18 19:22:00,52.4,33.8,30.21,SE,135,9.0,12.0,49,0.00,,---,0.00,VWS V14.01,2013-01-19 01:22:00,
2013-01-18 19:27:00,52.5,33.9,30.21,SSE,149,8.0,12.0,49,0.00,,---,0.00,VWS V14.01,2013-01-19 01:27:00,
2013-01-18 19:32:00,52.5,33.9,30.21,SSE,149,10.0,12.0,49,0.00,,---,0.00,VWS V14.01,2013-01-19 01:32:00,
2013-01-18 19:37:00,52.4,33.8,30.21,SE,134,9.0,13.0,49,0.00,,---,0.00,VWS V14.01,2013-01-19 01:37:00,
2013-01-18 19:42:00,52.1,33.5,30.21,SE,134,7.0,13.0,49,0.00,,---,0.00,VWS V14.01,2013-01-19 01:42:00,
2013-01-18 19:47:00,51.6,33.6,30.21,SE,144,6.0,13.0,50,0.00,,---,0.00,VWS V14.01,2013-01-19 01:47:00,
2013-01-18 19:52:00,51.2,33.7,30.21,SE,131,6.0,13.0,51,0.00,,---,0.00,VWS V14.01,2013-01-19 01:52:00,
2013-01-18 19:58:00,51.0,33.5,30.21,SE,136,7.0,14.0,51,0.00,,---,0.00,VWS V14.01,2013-01-19 01:58:00,
2013-01-18 20:03:00,50.9,33.4,30.21,SSE,149,8.0,11.0,51,0.00,,---,0.00,VWS V14.01,2013-01-19 02:03:00,
2013-01-18 20:08:00,50.6,33.6,30.21,SE,134,8.0,12.0,52,0.00,,---,0.00,VWS V14.01,2013-01-19 02:08:00,
2013-01-18 20:13:00,50.5,33.5,30.21,SE,139,8.0,12.0,52,0.00,,---,0.00,VWS V14.01,2013-01-19 02:13:00,
2013-01-18 20:18:00,50.5,33.5,30.21,ESE,103,7.0,12.0,52,0.00,,---,0.00,VWS V14.01,2013-01-19 02:18:00,
2013-01-18 20:23:00,50.6,33.6,30.21,SE,142,7.0,12.0,52,0.00,,---,0.00,VWS V14.01,2013-01-19 02:23:00,
2013-01-18 20:28:00,50.5,33.5,30.21,SSE,158,11.0,17.0,52,0.00,,---,0.00,VWS V14.01,2013-01-19 02:28:00,
2013-01-18 20:34:00,50.4,33.5,30.21,SE,134,10.0,12.0,52,0.00,,---,0.00,VWS V14.01,2013-01-19 02:34:00,
2013-01-18 20:39:00,50.1,33.7,30.21,ESE,115,9.0,12.0,53,0.00,,---,0.00,VWS V14.01,2013-01-19 02:39:00,
2013-01-18 20:44:00,50.1,33.7,30.21,SSE,159,6.0,15.0,53,0.00,,---,0.00,VWS V14.01,2013-01-19 02:44:00,
2013-01-18 20:49:00,49.8,33.4,30.20,SE,131,10.0,15.0,53,0.00,,---,0.00,VWS V14.01,2013-01-19 02:49:00,
2013-01-18 20:54:00,49.6,33.2,30.20,SSE,160,12.0,15.0,53,0.00,,---,0.00,VWS V14.01,2013-01-19 02:54:00,
2013-01-18 20:59:00,49.6,33.7,30.20,SSE,167,8.0,15.0,54,0.00,,---,0.00,VWS V14.01,2013-01-19 02:59:00,
2013-01-18 21:04:00,49.7,33.3,30.20,SE,131,8.0,14.0,53,0.00,,---,0.00,VWS V14.01,2013-01-19 03:04:00,
2013-01-18 21:09:00,50.0,33.6,30.20,SE,133,9.0,16.0,53,0.00,,---,0.00,VWS V14.01,2013-01-19 03:09:00,
2013-01-18 21:14:00,50.2,33.7,30.20,SE,138,11.0,16.0,53,0.00,,---,0.00,VWS V14.01,2013-01-19 03:14:00,
2013-01-18 21:19:00,50.3,33.8,30.20,SE,143,10.0,16.0,53,0.00,,---,0.00,VWS V14.01,2013-01-19 03:19:00,
2013-01-18 21:24:00,50.2,33.7,30.19,SSE,156,13.0,16.0,53,0.00,,---,0.00,VWS V14.01,2013-01-19 03:24:00,
2013-01-18 21:29:00,50.1,33.7,30.19,SE,143,11.0,16.0,53,0.00,,---,0.00,VWS V14.01,2013-01-19 03:29:00,
2013-01-18 21:34:00,50.1,33.7,30.19,South,174,13.0,18.0,53,0.00,,---,0.00,VWS V14.01,2013-01-19 03:34:00,
2013-01-18 21:40:00,50.0,33.6,30.19,SSE,151,13.0,18.0,53,0.00,,---,0.00,VWS V14.01,2013-01-19 03:40:00,
2013-01-18 21:45:00,50.0,33.6,30.19,SSE,160,13.0,19.0,53,0.00,,---,0.00,VWS V14.01,2013-01-19 03:45:00,
2013-01-18 21:50:00,49.9,33.5,30.19,SE,141,13.0,19.0,53,0.00,,---,0.00,VWS V14.01,2013-01-19 03:50:00,
2013-01-18 21:55:00,49.6,33.7,30.19,SE,124,13.0,20.0,54,0.00,,---,0.00,VWS V14.01,2013-01-19 03:55:00,
2013-01-18 22:00:00,49.4,33.5,30.19,SSE,149,12.0,20.0,54,0.00,,---,0.00,VWS V14.01,2013-01-19 04:00:00,
2013-01-18 22:05:00,49.1,33.7,30.19,SE,141,11.0,15.0,55,0.00,,---,0.00,VWS V14.01,2013-01-19 04:05:00,
2013-01-18 22:10:00,48.8,33.4,30.19,SE,129,10.0,16.0,55,0.00,,---,0.00,VWS V14.01,2013-01-19 04:10:00,
2013-01-18 22:15:00,48.6,33.6,30.19,SE,139,9.0,16.0,56,0.00,,---,0.00,VWS V14.01,2013-01-19 04:15:00,
2013-01-18 22:20:00,48.4,33.4,30.18,SSE,153,10.0,16.0,56,0.00,,---,0.00,VWS V14.01,2013-01-19 04:20:00,
2013-01-18 22:25:00,48.3,33.3,30.18,South,173,15.0,18.0,56,0.00,,---,0.00,VWS V14.01,2013-01-19 04:25:00,
2013-01-18 22:30:00,48.3,33.3,30.18,SSE,153,13.0,18.0,56,0.00,,---,0.00,VWS V14.01,2013-01-19 04:30:00,
2013-01-18 22:36:00,48.2,33.7,30.18,SSE,159,14.0,17.0,57,0.00,,---,0.00,VWS V14.01,2013-01-19 04:36:00,
2013-01-18 22:41:00,48.0,33.5,30.18,South,184,9.0,18.0,57,0.00,,---,0.00,VWS V14.01,2013-01-19 04:41:00,
2013-01-18 22:46:00,47.7,33.7,30.18,SSE,155,12.0,18.0,58,0.00,,---,0.00,VWS V14.01,2013-01-19 04:46:00,
2013-01-18 22:51:00,47.3,33.3,30.18,SSE,160,13.0,18.0,58,0.00,,---,0.00,VWS V14.01,2013-01-19 04:51:00,
2013-01-18 22:56:00,47.1,33.5,30.18,SSW,200,11.0,18.0,59,0.00,,---,0.00,VWS V14.01,2013-01-19 04:56:00,
2013-01-18 23:01:00,46.9,33.3,30.18,South,186,8.0,18.0,59,0.00,,---,0.00,VWS V14.01,2013-01-19 05:01:00,
2013-01-18 23:02:00,46.8,33.7,30.18,SSE,156,8.0,11.0,60,0.00,,---,0.00,VWS V14.01,2013-01-19 05:02:00,
2013-01-18 23:03:00,46.8,33.7,30.18,SE,131,8.0,12.0,60,0.00,,---,0.00,VWS V14.01,2013-01-19 05:03:00,
2013-01-18 23:05:00,46.7,33.6,30.18,SE,132,11.0,12.0,60,0.00,,---,0.00,VWS V14.01,2013-01-19 05:05:00,
2013-01-18 23:10:00,46.5,33.4,30.18,South,169,8.0,12.0,60,0.00,,---,0.00,VWS V14.01,2013-01-19 05:10:00,
2013-01-18 23:15:00,46.0,33.3,30.18,SSW,200,5.0,12.0,61,0.00,,---,0.00,VWS V14.01,2013-01-19 05:15:00,
2013-01-18 23:20:00,45.5,33.2,30.18,SSW,201,6.0,12.0,62,0.00,,---,0.00,VWS V14.01,2013-01-19 05:20:00,
2013-01-18 23:25:00,45.0,33.2,30.18,South,181,6.0,12.0,63,0.00,,---,0.00,VWS V14.01,2013-01-19 05:25:00,
2013-01-18 23:30:00,44.6,33.2,30.18,SSE,149,6.0,12.0,64,0.00,,---,0.00,VWS V14.01,2013-01-19 05:30:00,
2013-01-18 23:36:00,44.1,33.1,30.18,South,191,7.0,8.0,65,0.00,,---,0.00,VWS V14.01,2013-01-19 05:36:00,
2013-01-18 23:41:00,43.7,33.1,30.18,South,173,6.0,8.0,66,0.00,,---,0.00,VWS V14.01,2013-01-19 05:41:00,
2013-01-18 23:46:00,43.3,33.1,30.17,SSE,166,6.0,8.0,67,0.00,,---,0.00,VWS V14.01,2013-01-19 05:46:00,
2013-01-18 23:51:00,43.0,33.2,30.17,SE,132,6.0,9.0,68,0.00,,---,0.00,VWS V14.01,2013-01-19 05:51:00,
2013-01-18 23:56:00,42.8,33.0,30.17,SE,140,8.0,9.0,68,0.00,,---,0.00,VWS V14.01,2013-01-19 05:56:00,